sensor_id;sensor_type;location;lat;lon;timestamp;P1;durP1;ratioP1;P2;durP2;ratioP2
20042;SDS011;10182;52.896;6.496;2023-04-24T00:01:33;0.70;;;0.70;;
20042;SDS011;10182;52.896;6.496;2023-04-24T00:06:38;0.83;;;0.83;;
20042;SDS011;10182;52.896;6.496;2023-04-24T00:11:42;1.63;;;1.13;;
20042;SDS011;10182;52.896;6.496;2023-04-24T00:16:44;0.93;;;0.90;;
20042;SDS011;10182;52.896;6.496;2023-04-24T00:21:47;1.00;;;1.00;;
20042;SDS011;10182;52.896;6.496;2023-04-24T00:26:50;1.57;;;1.10;;
20042;SDS011;10182;52.896;6.496;2023-04-24T00:31:52;1.03;;;1.00;;
20042;SDS011;10182;52.896;6.496;2023-04-24T00:36:55;1.20;;;1.20;;
20042;SDS011;10182;52.896;6.496;2023-04-24T00:41:57;2.00;;;1.60;;
20042;SDS011;10182;52.896;6.496;2023-04-24T00:46:59;1.70;;;1.60;;
20042;SDS011;10182;52.896;6.496;2023-04-24T00:52:03;2.00;;;1.90;;
20042;SDS011;10182;52.896;6.496;2023-04-24T00:57:08;2.03;;;1.93;;
20042;SDS011;10182;52.896;6.496;2023-04-24T01:02:10;2.70;;;2.50;;
20042;SDS011;10182;52.896;6.496;2023-04-24T01:07:14;2.57;;;2.47;;
20042;SDS011;10182;52.896;6.496;2023-04-24T01:12:16;3.30;;;3.10;;
20042;SDS011;10182;52.896;6.496;2023-04-24T01:17:18;4.07;;;3.77;;
20042;SDS011;10182;52.896;6.496;2023-04-24T01:22:21;4.50;;;4.20;;
20042;SDS011;10182;52.896;6.496;2023-04-24T01:27:24;4.20;;;3.90;;
20042;SDS011;10182;52.896;6.496;2023-04-24T01:32:25;5.07;;;4.57;;
20042;SDS011;10182;52.896;6.496;2023-04-24T01:37:29;6.70;;;6.10;;
20042;SDS011;10182;52.896;6.496;2023-04-24T01:42:32;7.27;;;6.63;;
20042;SDS011;10182;52.896;6.496;2023-04-24T01:47:34;7.60;;;7.00;;
20042;SDS011;10182;52.896;6.496;2023-04-24T01:52:37;6.67;;;6.17;;
20042;SDS011;10182;52.896;6.496;2023-04-24T01:57:39;7.53;;;6.93;;
20042;SDS011;10182;52.896;6.496;2023-04-24T02:02:41;8.53;;;7.83;;
20042;SDS011;10182;52.896;6.496;2023-04-24T02:07:44;9.20;;;8.30;;
20042;SDS011;10182;52.896;6.496;2023-04-24T02:12:46;8.73;;;8.10;;
20042;SDS011;10182;52.896;6.496;2023-04-24T02:17:47;7.90;;;7.30;;
20042;SDS011;10182;52.896;6.496;2023-04-24T02:22:50;7.83;;;7.23;;
20042;SDS011;10182;52.896;6.496;2023-04-24T02:27:52;8.17;;;7.47;;
20042;SDS011;10182;52.896;6.496;2023-04-24T02:32:54;7.47;;;6.87;;
20042;SDS011;10182;52.896;6.496;2023-04-24T02:37:57;7.37;;;6.87;;
20042;SDS011;10182;52.896;6.496;2023-04-24T02:42:59;7.37;;;6.87;;
20042;SDS011;10182;52.896;6.496;2023-04-24T02:48:01;7.57;;;7.07;;
20042;SDS011;10182;52.896;6.496;2023-04-24T02:53:04;6.47;;;5.87;;
20042;SDS011;10182;52.896;6.496;2023-04-24T02:58:05;5.50;;;5.10;;
20042;SDS011;10182;52.896;6.496;2023-04-24T03:03:07;6.00;;;5.50;;
20042;SDS011;10182;52.896;6.496;2023-04-24T03:08:10;4.57;;;4.27;;
20042;SDS011;10182;52.896;6.496;2023-04-24T03:13:12;5.10;;;4.37;;
20042;SDS011;10182;52.896;6.496;2023-04-24T03:18:14;4.40;;;4.10;;
20042;SDS011;10182;52.896;6.496;2023-04-24T03:23:17;3.67;;;3.43;;
20042;SDS011;10182;52.896;6.496;2023-04-24T03:28:19;4.17;;;3.87;;
20042;SDS011;10182;52.896;6.496;2023-04-24T03:33:20;4.17;;;3.87;;
20042;SDS011;10182;52.896;6.496;2023-04-24T03:38:23;4.90;;;4.60;;
20042;SDS011;10182;52.896;6.496;2023-04-24T03:43:25;6.07;;;5.43;;
20042;SDS011;10182;52.896;6.496;2023-04-24T03:48:27;6.03;;;5.53;;
20042;SDS011;10182;52.896;6.496;2023-04-24T03:53:30;5.40;;;5.00;;
20042;SDS011;10182;52.896;6.496;2023-04-24T03:58:32;5.83;;;5.00;;
20042;SDS011;10182;52.896;6.496;2023-04-24T04:03:33;5.30;;;4.90;;
20042;SDS011;10182;52.896;6.496;2023-04-24T04:08:36;4.93;;;3.80;;
20042;SDS011;10182;52.896;6.496;2023-04-24T04:13:38;3.10;;;2.80;;
20042;SDS011;10182;52.896;6.496;2023-04-24T04:18:40;2.07;;;1.90;;
20042;SDS011;10182;52.896;6.496;2023-04-24T04:23:43;1.73;;;1.33;;
20042;SDS011;10182;52.896;6.496;2023-04-24T04:28:45;0.80;;;0.80;;
20042;SDS011;10182;52.896;6.496;2023-04-24T04:33:48;1.07;;;0.93;;
20042;SDS011;10182;52.896;6.496;2023-04-24T04:38:51;1.00;;;0.90;;
20042;SDS011;10182;52.896;6.496;2023-04-24T04:43:52;1.50;;;1.40;;
20042;SDS011;10182;52.896;6.496;2023-04-24T04:48:54;2.50;;;1.30;;
20042;SDS011;10182;52.896;6.496;2023-04-24T04:53:58;1.87;;;1.77;;
20042;SDS011;10182;52.896;6.496;2023-04-24T04:58:59;1.90;;;1.80;;
20042;SDS011;10182;52.896;6.496;2023-04-24T05:04:01;2.20;;;2.10;;
20042;SDS011;10182;52.896;6.496;2023-04-24T05:09:04;3.17;;;2.87;;
20042;SDS011;10182;52.896;6.496;2023-04-24T05:14:07;2.90;;;2.70;;
20042;SDS011;10182;52.896;6.496;2023-04-24T05:19:09;2.90;;;2.70;;
20042;SDS011;10182;52.896;6.496;2023-04-24T05:24:13;2.70;;;2.50;;
20042;SDS011;10182;52.896;6.496;2023-04-24T05:29:14;3.00;;;2.80;;
20042;SDS011;10182;52.896;6.496;2023-04-24T05:34:16;2.90;;;2.70;;
20042;SDS011;10182;52.896;6.496;2023-04-24T05:39:19;3.20;;;2.90;;
20042;SDS011;10182;52.896;6.496;2023-04-24T05:44:21;4.10;;;3.80;;
20042;SDS011;10182;52.896;6.496;2023-04-24T05:49:22;4.07;;;3.77;;
20042;SDS011;10182;52.896;6.496;2023-04-24T05:54:26;4.77;;;4.37;;
20042;SDS011;10182;52.896;6.496;2023-04-24T05:59:27;2.70;;;2.50;;
20042;SDS011;10182;52.896;6.496;2023-04-24T06:04:29;2.60;;;2.40;;
20042;SDS011;10182;52.896;6.496;2023-04-24T06:09:32;2.90;;;2.60;;
20042;SDS011;10182;52.896;6.496;2023-04-24T06:14:34;2.30;;;2.10;;
20042;SDS011;10182;52.896;6.496;2023-04-24T06:19:35;2.37;;;2.10;;
20042;SDS011;10182;52.896;6.496;2023-04-24T06:24:39;2.37;;;2.17;;
20042;SDS011;10182;52.896;6.496;2023-04-24T06:29:41;3.93;;;2.60;;
20042;SDS011;10182;52.896;6.496;2023-04-24T06:34:42;3.73;;;2.90;;
20042;SDS011;10182;52.896;6.496;2023-04-24T06:39:45;4.03;;;3.63;;
20042;SDS011;10182;52.896;6.496;2023-04-24T06:44:47;4.93;;;3.47;;
20042;SDS011;10182;52.896;6.496;2023-04-24T06:49:49;4.80;;;4.33;;
20042;SDS011;10182;52.896;6.496;2023-04-24T06:54:53;6.80;;;6.07;;
20042;SDS011;10182;52.896;6.496;2023-04-24T07:00:01;8.63;;;6.77;;
20042;SDS011;10182;52.896;6.496;2023-04-24T07:05:05;9.63;;;7.47;;
20042;SDS011;10182;52.896;6.496;2023-04-24T07:10:09;11.10;;;8.40;;
20042;SDS011;10182;52.896;6.496;2023-04-24T07:15:11;7.83;;;7.03;;
20042;SDS011;10182;52.896;6.496;2023-04-24T07:20:13;8.63;;;7.47;;
20042;SDS011;10182;52.896;6.496;2023-04-24T07:25:17;6.47;;;5.83;;
20042;SDS011;10182;52.896;6.496;2023-04-24T07:30:19;5.77;;;4.37;;
20042;SDS011;10182;52.896;6.496;2023-04-24T07:35:20;7.03;;;4.63;;
20042;SDS011;10182;52.896;6.496;2023-04-24T07:40:23;5.00;;;3.30;;
20042;SDS011;10182;52.896;6.496;2023-04-24T07:45:25;4.63;;;3.63;;
20042;SDS011;10182;52.896;6.496;2023-04-24T07:50:28;5.27;;;3.60;;
20042;SDS011;10182;52.896;6.496;2023-04-24T07:55:31;4.97;;;4.30;;
20042;SDS011;10182;52.896;6.496;2023-04-24T08:00:33;4.37;;;4.07;;
20042;SDS011;10182;52.896;6.496;2023-04-24T08:05:34;5.27;;;4.13;;
20042;SDS011;10182;52.896;6.496;2023-04-24T08:10:38;7.70;;;4.10;;
20042;SDS011;10182;52.896;6.496;2023-04-24T08:15:39;5.87;;;5.27;;
20042;SDS011;10182;52.896;6.496;2023-04-24T08:20:41;12.33;;;8.50;;
20042;SDS011;10182;52.896;6.496;2023-04-24T08:25:45;12.80;;;9.47;;
20042;SDS011;10182;52.896;6.496;2023-04-24T08:30:46;16.97;;;10.67;;
20042;SDS011;10182;52.896;6.496;2023-04-24T08:35:52;18.27;;;13.03;;
20042;SDS011;10182;52.896;6.496;2023-04-24T08:40:55;18.30;;;13.07;;
20042;SDS011;10182;52.896;6.496;2023-04-24T08:45:59;19.53;;;13.37;;
20042;SDS011;10182;52.896;6.496;2023-04-24T08:51:01;24.77;;;16.40;;
20042;SDS011;10182;52.896;6.496;2023-04-24T08:56:08;24.53;;;18.23;;
20042;SDS011;10182;52.896;6.496;2023-04-24T09:01:10;26.30;;;18.30;;
20042;SDS011;10182;52.896;6.496;2023-04-24T09:06:13;33.50;;;19.43;;
20042;SDS011;10182;52.896;6.496;2023-04-24T09:11:17;28.80;;;19.00;;
20042;SDS011;10182;52.896;6.496;2023-04-24T09:16:19;23.93;;;18.47;;
20042;SDS011;10182;52.896;6.496;2023-04-24T09:21:23;19.70;;;15.47;;
20042;SDS011;10182;52.896;6.496;2023-04-24T09:26:26;25.17;;;15.90;;
20042;SDS011;10182;52.896;6.496;2023-04-24T09:31:32;18.63;;;13.80;;
20042;SDS011;10182;52.896;6.496;2023-04-24T09:36:34;16.87;;;12.63;;
20042;SDS011;10182;52.896;6.496;2023-04-24T09:41:44;12.93;;;11.57;;
20042;SDS011;10182;52.896;6.496;2023-04-24T09:46:49;16.60;;;10.43;;
20042;SDS011;10182;52.896;6.496;2023-04-24T09:51:52;15.67;;;10.23;;
20042;SDS011;10182;52.896;6.496;2023-04-24T09:57:04;17.33;;;11.30;;
20042;SDS011;10182;52.896;6.496;2023-04-24T10:02:16;17.93;;;10.90;;
20042;SDS011;10182;52.896;6.496;2023-04-24T10:07:18;17.83;;;10.33;;
20042;SDS011;10182;52.896;6.496;2023-04-24T10:12:21;18.27;;;10.10;;
20042;SDS011;10182;52.896;6.496;2023-04-24T10:17:25;10.77;;;7.57;;
20042;SDS011;10182;52.896;6.496;2023-04-24T10:22:28;13.33;;;7.00;;
20042;SDS011;10182;52.896;6.496;2023-04-24T10:27:32;10.27;;;6.70;;
20042;SDS011;10182;52.896;6.496;2023-04-24T10:32:36;10.73;;;5.53;;
20042;SDS011;10182;52.896;6.496;2023-04-24T10:37:39;10.57;;;5.23;;
20042;SDS011;10182;52.896;6.496;2023-04-24T10:42:48;12.37;;;5.70;;
20042;SDS011;10182;52.896;6.496;2023-04-24T10:47:54;15.60;;;4.93;;
20042;SDS011;10182;52.896;6.496;2023-04-24T10:53:09;12.87;;;5.10;;
20042;SDS011;10182;52.896;6.496;2023-04-24T10:58:15;12.50;;;5.43;;
20042;SDS011;10182;52.896;6.496;2023-04-24T11:03:24;11.13;;;4.90;;
20042;SDS011;10182;52.896;6.496;2023-04-24T11:08:29;9.17;;;3.83;;
20042;SDS011;10182;52.896;6.496;2023-04-24T11:19:10;9.87;;;4.07;;
20042;SDS011;10182;52.896;6.496;2023-04-24T11:24:23;9.23;;;3.13;;
20042;SDS011;10182;52.896;6.496;2023-04-24T11:29:40;11.40;;;3.50;;
20042;SDS011;10182;52.896;6.496;2023-04-24T11:34:45;13.27;;;3.00;;
20042;SDS011;10182;52.896;6.496;2023-04-24T11:39:49;8.80;;;2.90;;
20042;SDS011;10182;52.896;6.496;2023-04-24T11:44:53;11.70;;;3.70;;
20042;SDS011;10182;52.896;6.496;2023-04-24T11:49:57;7.20;;;3.00;;
20042;SDS011;10182;52.896;6.496;2023-04-24T11:54:59;9.73;;;3.13;;
20042;SDS011;10182;52.896;6.496;2023-04-24T12:00:03;9.37;;;2.33;;
20042;SDS011;10182;52.896;6.496;2023-04-24T12:05:06;6.30;;;2.77;;
20042;SDS011;10182;52.896;6.496;2023-04-24T12:10:08;7.57;;;2.63;;
20042;SDS011;10182;52.896;6.496;2023-04-24T12:15:12;9.63;;;2.43;;
20042;SDS011;10182;52.896;6.496;2023-04-24T12:20:14;7.53;;;1.73;;
20042;SDS011;10182;52.896;6.496;2023-04-24T12:25:16;4.87;;;1.80;;
20042;SDS011;10182;52.896;6.496;2023-04-24T12:30:20;4.67;;;1.60;;
20042;SDS011;10182;52.896;6.496;2023-04-24T12:35:23;6.47;;;1.20;;
20042;SDS011;10182;52.896;6.496;2023-04-24T12:40:27;4.07;;;1.70;;
20042;SDS011;10182;52.896;6.496;2023-04-24T12:45:31;3.90;;;1.30;;
20042;SDS011;10182;52.896;6.496;2023-04-24T12:50:33;4.50;;;1.73;;
20042;SDS011;10182;52.896;6.496;2023-04-24T12:55:35;2.93;;;0.90;;
20042;SDS011;10182;52.896;6.496;2023-04-24T13:00:38;4.53;;;1.17;;
20042;SDS011;10182;52.896;6.496;2023-04-24T13:05:40;4.73;;;1.57;;
20042;SDS011;10182;52.896;6.496;2023-04-24T13:10:43;8.83;;;1.20;;
20042;SDS011;10182;52.896;6.496;2023-04-24T13:15:46;1.53;;;0.80;;
20042;SDS011;10182;52.896;6.496;2023-04-24T13:20:48;4.10;;;1.50;;
20042;SDS011;10182;52.896;6.496;2023-04-24T13:25:50;3.53;;;1.10;;
20042;SDS011;10182;52.896;6.496;2023-04-24T13:30:53;2.67;;;1.50;;
20042;SDS011;10182;52.896;6.496;2023-04-24T13:35:55;3.87;;;1.43;;
20042;SDS011;10182;52.896;6.496;2023-04-24T13:40:56;3.03;;;1.07;;
20042;SDS011;10182;52.896;6.496;2023-04-24T13:45:59;4.30;;;1.27;;
20042;SDS011;10182;52.896;6.496;2023-04-24T13:51:03;5.53;;;1.70;;
20042;SDS011;10182;52.896;6.496;2023-04-24T13:56:05;3.10;;;1.63;;
20042;SDS011;10182;52.896;6.496;2023-04-24T14:01:08;8.37;;;2.00;;
20042;SDS011;10182;52.896;6.496;2023-04-24T14:06:10;6.07;;;1.83;;
20042;SDS011;10182;52.896;6.496;2023-04-24T14:11:11;5.97;;;1.90;;
20042;SDS011;10182;52.896;6.496;2023-04-24T14:16:15;9.50;;;2.07;;
20042;SDS011;10182;52.896;6.496;2023-04-24T14:21:16;4.27;;;1.47;;
20042;SDS011;10182;52.896;6.496;2023-04-24T14:26:19;6.83;;;2.37;;
20042;SDS011;10182;52.896;6.496;2023-04-24T14:31:22;11.03;;;2.83;;
20042;SDS011;10182;52.896;6.496;2023-04-24T14:36:23;8.93;;;2.23;;
20042;SDS011;10182;52.896;6.496;2023-04-24T14:41:25;10.10;;;2.83;;
20042;SDS011;10182;52.896;6.496;2023-04-24T14:46:28;11.13;;;2.47;;
20042;SDS011;10182;52.896;6.496;2023-04-24T14:51:30;11.73;;;3.20;;
20042;SDS011;10182;52.896;6.496;2023-04-24T14:56:32;13.03;;;3.40;;
20042;SDS011;10182;52.896;6.496;2023-04-24T15:01:35;9.30;;;4.17;;
20042;SDS011;10182;52.896;6.496;2023-04-24T15:06:36;10.73;;;3.10;;
20042;SDS011;10182;52.896;6.496;2023-04-24T15:11:38;11.43;;;3.23;;
20042;SDS011;10182;52.896;6.496;2023-04-24T15:16:42;8.20;;;2.97;;
20042;SDS011;10182;52.896;6.496;2023-04-24T15:21:44;10.20;;;2.47;;
20042;SDS011;10182;52.896;6.496;2023-04-24T15:26:45;8.03;;;2.77;;
20042;SDS011;10182;52.896;6.496;2023-04-24T15:31:48;10.43;;;3.20;;
20042;SDS011;10182;52.896;6.496;2023-04-24T15:36:50;10.60;;;3.33;;
20042;SDS011;10182;52.896;6.496;2023-04-24T15:41:52;9.20;;;2.80;;
20042;SDS011;10182;52.896;6.496;2023-04-24T15:46:55;8.60;;;3.10;;
20042;SDS011;10182;52.896;6.496;2023-04-24T15:51:57;6.63;;;3.03;;
20042;SDS011;10182;52.896;6.496;2023-04-24T15:56:59;15.03;;;4.33;;
20042;SDS011;10182;52.896;6.496;2023-04-24T16:02:02;13.90;;;4.40;;
20042;SDS011;10182;52.896;6.496;2023-04-24T16:07:04;13.07;;;5.13;;
20042;SDS011;10182;52.896;6.496;2023-04-24T16:12:07;14.37;;;4.23;;
20042;SDS011;10182;52.896;6.496;2023-04-24T16:17:11;10.00;;;4.30;;
20042;SDS011;10182;52.896;6.496;2023-04-24T16:22:13;12.20;;;4.10;;
20042;SDS011;10182;52.896;6.496;2023-04-24T16:27:14;11.03;;;4.33;;
20042;SDS011;10182;52.896;6.496;2023-04-24T16:32:17;9.17;;;4.07;;
20042;SDS011;10182;52.896;6.496;2023-04-24T16:37:19;9.60;;;4.30;;
20042;SDS011;10182;52.896;6.496;2023-04-24T16:42:21;10.67;;;4.00;;
20042;SDS011;10182;52.896;6.496;2023-04-24T16:47:24;13.10;;;4.27;;
20042;SDS011;10182;52.896;6.496;2023-04-24T16:52:26;9.73;;;3.80;;
20042;SDS011;10182;52.896;6.496;2023-04-24T16:57:27;10.67;;;4.17;;
20042;SDS011;10182;52.896;6.496;2023-04-24T17:02:31;8.00;;;4.10;;
20042;SDS011;10182;52.896;6.496;2023-04-24T17:07:32;9.80;;;3.87;;
20042;SDS011;10182;52.896;6.496;2023-04-24T17:12:35;13.47;;;4.40;;
20042;SDS011;10182;52.896;6.496;2023-04-24T17:17:38;8.40;;;3.87;;
20042;SDS011;10182;52.896;6.496;2023-04-24T17:22:41;16.93;;;4.60;;
20042;SDS011;10182;52.896;6.496;2023-04-24T17:27:43;12.70;;;5.33;;
20042;SDS011;10182;52.896;6.496;2023-04-24T17:32:46;16.10;;;5.30;;
20042;SDS011;10182;52.896;6.496;2023-04-24T17:37:48;10.40;;;4.90;;
20042;SDS011;10182;52.896;6.496;2023-04-24T17:42:50;16.07;;;5.10;;
20042;SDS011;10182;52.896;6.496;2023-04-24T17:47:53;6.23;;;3.40;;
20042;SDS011;10182;52.896;6.496;2023-04-24T17:52:55;4.47;;;2.83;;
20042;SDS011;10182;52.896;6.496;2023-04-24T17:57:57;4.03;;;2.70;;
20042;SDS011;10182;52.896;6.496;2023-04-24T18:03:02;5.00;;;2.80;;
20042;SDS011;10182;52.896;6.496;2023-04-24T18:08:04;7.27;;;3.30;;
20042;SDS011;10182;52.896;6.496;2023-04-24T18:13:07;7.37;;;2.93;;
20042;SDS011;10182;52.896;6.496;2023-04-24T18:18:11;5.13;;;3.90;;
20042;SDS011;10182;52.896;6.496;2023-04-24T18:23:14;10.90;;;4.40;;
20042;SDS011;10182;52.896;6.496;2023-04-24T18:28:16;6.57;;;3.93;;
20042;SDS011;10182;52.896;6.496;2023-04-24T18:33:21;7.53;;;3.90;;
20042;SDS011;10182;52.896;6.496;2023-04-24T18:38:23;7.03;;;3.63;;
20042;SDS011;10182;52.896;6.496;2023-04-24T18:43:25;7.23;;;3.57;;
20042;SDS011;10182;52.896;6.496;2023-04-24T18:48:28;17.53;;;4.63;;
20042;SDS011;10182;52.896;6.496;2023-04-24T18:53:30;17.70;;;4.20;;
20042;SDS011;10182;52.896;6.496;2023-04-24T18:58:32;15.33;;;4.40;;
20042;SDS011;10182;52.896;6.496;2023-04-24T19:03:35;13.80;;;4.57;;
20042;SDS011;10182;52.896;6.496;2023-04-24T19:08:37;9.60;;;4.70;;
20042;SDS011;10182;52.896;6.496;2023-04-24T19:13:41;11.03;;;4.63;;
20042;SDS011;10182;52.896;6.496;2023-04-24T19:18:44;9.57;;;5.17;;
20042;SDS011;10182;52.896;6.496;2023-04-24T19:23:46;11.07;;;5.17;;
20042;SDS011;10182;52.896;6.496;2023-04-24T19:28:49;21.40;;;7.37;;
20042;SDS011;10182;52.896;6.496;2023-04-24T19:33:54;13.10;;;6.17;;
20042;SDS011;10182;52.896;6.496;2023-04-24T19:38:55;13.90;;;5.90;;
20042;SDS011;10182;52.896;6.496;2023-04-24T19:43:57;13.33;;;5.57;;
20042;SDS011;10182;52.896;6.496;2023-04-24T19:49:00;15.13;;;6.30;;
20042;SDS011;10182;52.896;6.496;2023-04-24T19:54:02;13.13;;;5.10;;
20042;SDS011;10182;52.896;6.496;2023-04-24T19:59:05;11.87;;;4.60;;
20042;SDS011;10182;52.896;6.496;2023-04-24T20:04:09;16.17;;;5.00;;
20042;SDS011;10182;52.896;6.496;2023-04-24T20:09:11;15.03;;;4.70;;
20042;SDS011;10182;52.896;6.496;2023-04-24T20:14:13;14.33;;;4.77;;
20042;SDS011;10182;52.896;6.496;2023-04-24T20:19:16;12.60;;;4.70;;
20042;SDS011;10182;52.896;6.496;2023-04-24T20:24:18;10.73;;;4.90;;
20042;SDS011;10182;52.896;6.496;2023-04-24T20:29:20;10.87;;;5.13;;
20042;SDS011;10182;52.896;6.496;2023-04-24T20:34:23;8.37;;;4.87;;
20042;SDS011;10182;52.896;6.496;2023-04-24T20:39:25;15.00;;;5.57;;
20042;SDS011;10182;52.896;6.496;2023-04-24T20:44:27;10.40;;;4.60;;
20042;SDS011;10182;52.896;6.496;2023-04-24T20:49:30;10.33;;;4.73;;
20042;SDS011;10182;52.896;6.496;2023-04-24T20:54:32;9.60;;;4.80;;
20042;SDS011;10182;52.896;6.496;2023-04-24T20:59:34;10.27;;;4.80;;
20042;SDS011;10182;52.896;6.496;2023-04-24T21:04:37;7.60;;;4.87;;
20042;SDS011;10182;52.896;6.496;2023-04-24T21:09:39;9.47;;;4.40;;
20042;SDS011;10182;52.896;6.496;2023-04-24T21:14:41;12.43;;;6.10;;
20042;SDS011;10182;52.896;6.496;2023-04-24T21:19:44;13.37;;;6.03;;
20042;SDS011;10182;52.896;6.496;2023-04-24T21:24:45;18.07;;;6.33;;
20042;SDS011;10182;52.896;6.496;2023-04-24T21:29:47;20.07;;;6.03;;
20042;SDS011;10182;52.896;6.496;2023-04-24T21:34:50;17.17;;;6.50;;
20042;SDS011;10182;52.896;6.496;2023-04-24T21:39:52;23.63;;;7.33;;
20042;SDS011;10182;52.896;6.496;2023-04-24T21:44:55;22.53;;;7.47;;
20042;SDS011;10182;52.896;6.496;2023-04-24T21:49:58;34.73;;;7.87;;
20042;SDS011;10182;52.896;6.496;2023-04-24T21:55:00;31.23;;;7.40;;
20042;SDS011;10182;52.896;6.496;2023-04-24T22:00:02;25.47;;;7.57;;
20042;SDS011;10182;52.896;6.496;2023-04-24T22:05:08;31.80;;;7.27;;
20042;SDS011;10182;52.896;6.496;2023-04-24T22:10:14;23.43;;;7.17;;
20042;SDS011;10182;52.896;6.496;2023-04-24T22:15:17;19.13;;;7.00;;
20042;SDS011;10182;52.896;6.496;2023-04-24T22:20:20;25.40;;;7.13;;
20042;SDS011;10182;52.896;6.496;2023-04-24T22:25:22;31.47;;;7.13;;
20042;SDS011;10182;52.896;6.496;2023-04-24T22:30:24;28.37;;;6.63;;
20042;SDS011;10182;52.896;6.496;2023-04-24T22:35:27;27.97;;;7.17;;
20042;SDS011;10182;52.896;6.496;2023-04-24T22:40:28;22.93;;;6.50;;
20042;SDS011;10182;52.896;6.496;2023-04-24T22:45:30;26.17;;;7.53;;
20042;SDS011;10182;52.896;6.496;2023-04-24T22:50:33;24.30;;;7.27;;
20042;SDS011;10182;52.896;6.496;2023-04-24T22:55:35;31.73;;;7.60;;
20042;SDS011;10182;52.896;6.496;2023-04-24T23:00:37;23.40;;;7.63;;
20042;SDS011;10182;52.896;6.496;2023-04-24T23:05:40;26.77;;;6.77;;
20042;SDS011;10182;52.896;6.496;2023-04-24T23:10:41;32.53;;;6.50;;
20042;SDS011;10182;52.896;6.496;2023-04-24T23:15:43;23.60;;;6.67;;
20042;SDS011;10182;52.896;6.496;2023-04-24T23:20:46;15.43;;;5.67;;
20042;SDS011;10182;52.896;6.496;2023-04-24T23:25:48;19.40;;;6.13;;
20042;SDS011;10182;52.896;6.496;2023-04-24T23:30:50;18.57;;;7.10;;
20042;SDS011;10182;52.896;6.496;2023-04-24T23:35:53;28.20;;;6.47;;
20042;SDS011;10182;52.896;6.496;2023-04-24T23:40:55;24.43;;;6.63;;
20042;SDS011;10182;52.896;6.496;2023-04-24T23:45:56;20.83;;;5.53;;
20042;SDS011;10182;52.896;6.496;2023-04-24T23:51:00;19.10;;;5.47;;
20042;SDS011;10182;52.896;6.496;2023-04-24T23:56:01;21.27;;;5.93;;
